createdAt,value
2023-05-03T00:00:08.099Z,10.53
2023-05-03T00:02:35.718Z,7.73
2023-05-03T00:05:02.335Z,6.40
2023-05-03T00:07:28.737Z,8.73
2023-05-03T00:09:55.400Z,13.07
2023-05-03T00:12:22.700Z,8.13
2023-05-03T00:14:49.157Z,10.47
2023-05-03T00:17:15.581Z,12.77
2023-05-03T00:19:42.631Z,8.87
2023-05-03T00:22:09.542Z,8.47
2023-05-03T00:24:35.955Z,8.30
2023-05-03T00:27:03.735Z,9.10
2023-05-03T00:29:30.188Z,8.37
2023-05-03T00:31:56.575Z,8.47
2023-05-03T00:34:22.933Z,8.87
2023-05-03T00:36:49.330Z,8.33
2023-05-03T00:39:15.760Z,9.37
2023-05-03T00:41:42.138Z,7.33
2023-05-03T00:44:08.630Z,8.17
2023-05-03T00:46:35.394Z,7.10
2023-05-03T00:49:01.948Z,8.33
2023-05-03T00:51:28.377Z,6.57
2023-05-03T00:53:54.771Z,8.63
2023-05-03T00:56:21.331Z,9.97
2023-05-03T00:58:47.738Z,10.77
2023-05-03T01:01:15.375Z,5.93
2023-05-03T01:03:42.964Z,9.47
2023-05-03T01:06:22.478Z,7.47
2023-05-03T01:08:54.787Z,8.27
2023-05-03T01:11:23.771Z,7.80
2023-05-03T01:13:59.083Z,11.10
2023-05-03T01:16:34.021Z,8.70
2023-05-03T01:19:02.831Z,8.38
2023-05-03T01:21:30.880Z,10.20
2023-05-03T01:24:19.114Z,12.67
2023-05-03T01:26:45.887Z,10.30
2023-05-03T01:29:12.190Z,10.50
2023-05-03T01:31:43.634Z,9.27
2023-05-03T01:34:19.136Z,11.03
2023-05-03T01:36:46.085Z,9.17
2023-05-03T01:39:20.787Z,10.63
2023-05-03T01:41:49.798Z,9.95
2023-05-03T01:44:16.509Z,9.27
2023-05-03T01:46:46.252Z,11.87
2023-05-03T01:49:12.650Z,9.77
2023-05-03T01:51:39.040Z,9.07
2023-05-03T01:54:06.136Z,7.40
2023-05-03T01:56:34.882Z,8.60
2023-05-03T01:59:01.297Z,9.73
2023-05-03T02:01:27.748Z,9.57
2023-05-03T02:03:54.194Z,11.97
2023-05-03T02:06:20.776Z,14.23
2023-05-03T02:08:47.096Z,8.00
2023-05-03T02:11:13.439Z,8.23
2023-05-03T02:13:39.744Z,7.67
2023-05-03T02:16:06.195Z,7.57
2023-05-03T02:18:33.649Z,5.70
2023-05-03T02:21:00.106Z,8.97
2023-05-03T02:23:26.624Z,3.07
2023-05-03T02:25:52.923Z,2.93
2023-05-03T02:28:19.263Z,5.03
2023-05-03T02:30:45.694Z,7.53
2023-05-03T02:33:12.117Z,3.80
2023-05-03T02:35:38.497Z,3.97
2023-05-03T02:38:04.855Z,3.90
2023-05-03T02:40:31.234Z,4.53
2023-05-03T02:42:57.555Z,3.03
2023-05-03T02:45:24.350Z,3.57
2023-05-03T02:47:50.687Z,4.10
2023-05-03T02:50:17.011Z,3.00
2023-05-03T02:52:43.370Z,2.43
2023-05-03T02:55:09.804Z,3.40
2023-05-03T02:57:36.236Z,3.67
2023-05-03T03:00:02.891Z,4.97
2023-05-03T03:02:29.504Z,4.60
2023-05-03T03:04:56.164Z,3.83
2023-05-03T03:07:22.538Z,4.17
2023-05-03T03:09:48.884Z,12.07
2023-05-03T03:12:15.260Z,3.57
2023-05-03T03:14:42.752Z,3.93
2023-05-03T03:17:09.245Z,6.23
2023-05-03T03:19:35.764Z,3.27
2023-05-03T03:22:02.190Z,4.37
2023-05-03T03:24:28.489Z,8.57
2023-05-03T03:26:54.818Z,3.50
2023-05-03T03:29:21.246Z,10.90
2023-05-03T03:31:47.619Z,5.37
2023-05-03T03:34:14.104Z,5.57
2023-05-03T03:36:40.511Z,2.90
2023-05-03T03:39:07.242Z,3.70
2023-05-03T03:41:33.717Z,3.43
2023-05-03T03:44:00.129Z,4.13
2023-05-03T03:46:26.796Z,8.33
2023-05-03T03:48:53.183Z,4.03
2023-05-03T03:51:19.585Z,4.03
2023-05-03T03:53:45.946Z,4.00
2023-05-03T03:56:12.248Z,3.10
2023-05-03T03:58:38.577Z,4.80
2023-05-03T04:01:05.133Z,3.27
2023-05-03T04:03:31.532Z,3.77
2023-05-03T04:05:57.989Z,7.23
2023-05-03T04:08:24.312Z,3.57
2023-05-03T04:10:50.847Z,3.67
2023-05-03T04:13:17.171Z,3.67
2023-05-03T04:15:43.811Z,3.67
2023-05-03T04:18:10.182Z,4.50
2023-05-03T04:20:36.781Z,3.40
2023-05-03T04:23:03.396Z,3.27
2023-05-03T04:25:31.856Z,4.47
2023-05-03T04:27:58.501Z,4.20
2023-05-03T04:30:25.760Z,4.40
2023-05-03T04:32:54.351Z,5.20
2023-05-03T04:35:20.846Z,3.87
2023-05-03T04:37:47.432Z,3.07
2023-05-03T04:40:13.880Z,3.20
2023-05-03T04:42:41.125Z,3.60
2023-05-03T04:45:09.559Z,9.07
2023-05-03T04:47:36.780Z,3.87
2023-05-03T04:50:04.047Z,3.50
2023-05-03T04:52:30.617Z,3.17
2023-05-03T04:54:56.985Z,6.47
2023-05-03T04:57:23.313Z,3.97
2023-05-03T04:59:50.245Z,5.13
2023-05-03T05:02:16.603Z,4.73
2023-05-03T05:04:42.916Z,8.77
2023-05-03T05:07:09.249Z,5.77
2023-05-03T05:09:36.351Z,2.90
2023-05-03T05:12:04.074Z,6.80
2023-05-03T05:14:30.802Z,6.93
2023-05-03T05:16:57.461Z,3.40
2023-05-03T05:19:23.820Z,4.90
2023-05-03T05:21:51.270Z,3.53
2023-05-03T05:24:17.611Z,3.13
2023-05-03T05:26:43.941Z,8.50
2023-05-03T05:29:10.274Z,8.67
2023-05-03T05:31:36.716Z,12.50
2023-05-03T05:34:03.446Z,4.90
2023-05-03T05:36:30.662Z,7.27
2023-05-03T05:38:57.069Z,5.97
2023-05-03T05:41:23.385Z,4.23
2023-05-03T05:43:49.722Z,3.57
2023-05-03T05:46:16.900Z,3.90
2023-05-03T05:48:43.418Z,6.27
2023-05-03T05:51:09.699Z,5.77
2023-05-03T05:53:36.000Z,2.60
2023-05-03T05:56:02.328Z,3.87
2023-05-03T05:58:28.664Z,4.83
2023-05-03T06:00:58.967Z,3.40
2023-05-03T06:03:25.478Z,5.13
2023-05-03T06:05:51.807Z,3.97
2023-05-03T06:08:18.110Z,4.40
2023-05-03T06:10:44.447Z,6.17
2023-05-03T06:13:10.822Z,3.93
2023-05-03T06:15:37.214Z,2.90
2023-05-03T06:18:04.652Z,8.53
2023-05-03T06:20:31.041Z,9.13
2023-05-03T06:22:57.337Z,36.45
2023-05-03T06:25:23.628Z,25.85
2023-05-03T06:27:49.941Z,19.23
2023-05-03T06:30:16.627Z,25.88
2023-05-03T06:32:43.429Z,31.88
2023-05-03T06:35:09.871Z,13.73
2023-05-03T06:37:36.447Z,11.05
2023-05-03T06:40:02.952Z,15.98
2023-05-03T06:42:29.446Z,5.93
2023-05-03T06:44:55.837Z,6.85
2023-05-03T06:47:22.280Z,16.58
2023-05-03T06:49:48.759Z,14.27
2023-05-03T06:52:15.139Z,16.75
2023-05-03T06:54:41.438Z,13.82
2023-05-03T06:57:07.776Z,23.95
2023-05-03T06:59:34.096Z,25.88
2023-05-03T07:02:00.487Z,19.05
2023-05-03T07:04:26.817Z,12.52
2023-05-03T07:06:56.692Z,14.15
2023-05-03T07:09:35.404Z,25.95
2023-05-03T07:12:09.036Z,19.13
2023-05-03T07:14:35.627Z,15.65
2023-05-03T07:17:01.948Z,19.33
2023-05-03T07:19:28.741Z,16.90
2023-05-03T07:21:55.070Z,12.13
2023-05-03T07:24:21.495Z,7.05
2023-05-03T07:26:49.107Z,19.90
2023-05-03T07:29:15.680Z,11.38
2023-05-03T07:31:42.152Z,16.10
2023-05-03T07:34:08.458Z,16.30
2023-05-03T07:36:34.758Z,14.30
2023-05-03T07:39:01.067Z,7.75
2023-05-03T07:41:27.368Z,3.47
2023-05-03T07:43:54.928Z,16.30
2023-05-03T07:46:21.676Z,22.45
2023-05-03T07:48:48.127Z,17.42
2023-05-03T07:51:14.625Z,19.75
2023-05-03T07:53:41.296Z,15.25
2023-05-03T07:56:07.846Z,19.08
2023-05-03T07:58:40.083Z,22.02
2023-05-03T08:01:07.342Z,11.88
2023-05-03T08:03:33.880Z,19.00
2023-05-03T08:06:00.810Z,11.30
2023-05-03T08:08:27.844Z,16.42
2023-05-03T08:10:54.346Z,14.77
2023-05-03T08:13:22.548Z,16.98
2023-05-03T08:15:49.369Z,17.88
2023-05-03T08:18:15.964Z,18.30
2023-05-03T08:20:42.378Z,9.77
2023-05-03T08:23:08.678Z,17.38
2023-05-03T08:25:37.153Z,14.65
2023-05-03T08:28:03.658Z,17.58
2023-05-03T08:30:30.406Z,8.23
2023-05-03T08:32:56.765Z,12.60
2023-05-03T08:35:23.157Z,14.52
2023-05-03T08:37:49.467Z,16.98
2023-05-03T08:40:16.680Z,5.35
2023-05-03T08:42:43.821Z,9.48
2023-05-03T08:45:11.606Z,10.30
2023-05-03T08:47:40.630Z,16.17
2023-05-03T08:50:08.477Z,15.07
2023-05-03T08:52:35.262Z,13.85
2023-05-03T08:55:01.657Z,16.55
2023-05-03T08:57:28.401Z,13.43
2023-05-03T08:59:58.408Z,11.95
2023-05-03T09:02:24.786Z,19.58
2023-05-03T09:04:51.148Z,11.50
2023-05-03T09:07:17.461Z,17.73
2023-05-03T09:09:45.552Z,17.23
2023-05-03T09:12:32.606Z,16.08
2023-05-03T09:17:25.511Z,15.80
2023-05-03T09:19:52.532Z,16.88
2023-05-03T09:22:19.151Z,12.07
2023-05-03T09:24:55.737Z,15.93
2023-05-03T09:27:23.194Z,48.00
2023-05-03T09:29:50.070Z,21.65
2023-05-03T09:32:17.134Z,13.52
2023-05-03T09:34:43.986Z,17.92
2023-05-03T09:37:10.698Z,10.82
2023-05-03T09:39:37.065Z,13.88
2023-05-03T09:42:17.076Z,13.10
2023-05-03T09:44:44.816Z,25.13
2023-05-03T09:47:11.714Z,20.92
2023-05-03T09:49:38.411Z,4.50
2023-05-03T09:52:06.396Z,12.88
2023-05-03T09:54:32.832Z,9.02
2023-05-03T09:57:00.760Z,8.45
2023-05-03T09:59:27.137Z,3.90
2023-05-03T10:01:56.462Z,7.25
2023-05-03T10:04:25.007Z,5.93
2023-05-03T10:06:53.077Z,15.48
2023-05-03T10:09:26.658Z,12.75
2023-05-03T10:11:54.375Z,5.20
2023-05-03T10:14:21.474Z,8.85
2023-05-03T10:16:49.219Z,6.53
2023-05-03T10:19:21.727Z,6.13
2023-05-03T10:22:07.247Z,4.70
2023-05-03T10:24:37.757Z,4.30
2023-05-03T10:27:07.666Z,4.20
2023-05-03T10:29:37.813Z,6.10
2023-05-03T10:32:24.501Z,9.15
2023-05-03T10:34:56.066Z,10.32
2023-05-03T10:37:26.612Z,9.60
2023-05-03T10:39:53.286Z,10.23
2023-05-03T10:42:21.911Z,10.15
2023-05-03T10:44:52.255Z,6.13
2023-05-03T10:47:20.171Z,8.10
2023-05-03T10:49:46.620Z,5.32
2023-05-03T10:52:31.703Z,6.47
2023-05-03T10:54:58.044Z,9.02
2023-05-03T10:57:27.389Z,7.90
2023-05-03T10:59:53.916Z,7.13
2023-05-03T11:02:23.002Z,6.93
2023-05-03T11:04:50.099Z,7.35
2023-05-03T11:07:19.859Z,7.80
2023-05-03T11:09:47.651Z,6.55
2023-05-03T11:12:14.058Z,10.45
2023-05-03T11:14:41.586Z,7.85
2023-05-03T11:17:08.162Z,7.07
2023-05-03T11:19:35.212Z,3.80
2023-05-03T11:22:01.883Z,10.60
2023-05-03T11:24:28.230Z,12.38
2023-05-03T11:26:54.583Z,8.02
2023-05-03T11:29:21.968Z,14.80
2023-05-03T11:31:48.347Z,13.77
2023-05-03T11:34:15.786Z,10.70
2023-05-03T11:36:42.330Z,12.32
2023-05-03T11:39:09.237Z,11.20
2023-05-03T11:41:35.898Z,12.85
2023-05-03T11:44:15.091Z,13.43
2023-05-03T11:46:43.420Z,12.10
2023-05-03T11:49:09.799Z,4.28
2023-05-03T11:51:36.160Z,6.72
2023-05-03T11:54:17.060Z,8.15
2023-05-03T11:56:52.804Z,5.38
2023-05-03T11:59:20.072Z,3.60
2023-05-03T12:01:49.347Z,4.70
2023-05-03T12:04:16.879Z,6.55
2023-05-03T12:09:15.674Z,3.95
2023-05-03T12:11:43.744Z,3.20
2023-05-03T12:14:11.119Z,2.78
2023-05-03T12:16:47.572Z,5.10
2023-05-03T12:19:23.670Z,4.30
2023-05-03T12:22:04.490Z,4.18
2023-05-03T12:24:39.278Z,2.97
2023-05-03T12:27:08.195Z,5.07
2023-05-03T12:29:35.684Z,8.77
2023-05-03T12:32:03.436Z,3.78
2023-05-03T12:34:34.735Z,6.72
2023-05-03T12:37:04.906Z,4.28
2023-05-03T12:39:32.993Z,5.03
2023-05-03T12:44:29.255Z,3.85
2023-05-03T12:46:55.810Z,3.55
2023-05-03T12:49:23.524Z,4.45
2023-05-03T12:52:05.333Z,4.07
2023-05-03T12:54:39.711Z,5.15
2023-05-03T12:57:14.655Z,3.65
2023-05-03T12:59:43.074Z,7.13
2023-05-03T13:07:13.780Z,4.15
2023-05-03T13:12:27.208Z,3.03
2023-05-03T13:14:53.974Z,3.25
2023-05-03T13:17:22.443Z,3.50
2023-05-03T13:19:49.729Z,3.67
2023-05-03T13:22:16.475Z,6.22
2023-05-03T13:24:47.021Z,6.45
2023-05-03T13:27:13.533Z,5.25
2023-05-03T13:29:39.923Z,6.07
2023-05-03T13:32:06.699Z,11.55
2023-05-03T13:34:33.313Z,4.07
2023-05-03T13:37:00.132Z,5.00
2023-05-03T13:39:26.506Z,4.85
2023-05-03T13:41:53.085Z,6.00
2023-05-03T13:44:21.262Z,11.32
2023-05-03T13:46:47.547Z,4.68
2023-05-03T13:49:14.114Z,8.10
2023-05-03T13:51:40.630Z,4.20
2023-05-03T13:54:08.115Z,4.13
2023-05-03T13:56:35.104Z,5.85
2023-05-03T13:59:01.413Z,6.97
2023-05-03T14:01:28.498Z,4.32
2023-05-03T14:03:55.411Z,9.23
2023-05-03T14:06:23.189Z,5.38
2023-05-03T14:08:49.502Z,4.68
2023-05-03T14:11:16.460Z,4.10
2023-05-03T14:13:55.510Z,5.13
2023-05-03T14:16:38.951Z,6.05
2023-05-03T14:19:07.395Z,4.45
2023-05-03T14:21:33.753Z,6.13
2023-05-03T14:24:01.158Z,5.22
2023-05-03T14:26:29.244Z,5.88
2023-05-03T14:28:56.030Z,7.93
2023-05-03T14:31:22.459Z,5.80
2023-05-03T14:33:48.776Z,3.97
2023-05-03T14:36:15.079Z,4.70
2023-05-03T14:38:41.452Z,3.40
2023-05-03T14:41:07.796Z,5.03
2023-05-03T14:43:34.165Z,5.18
2023-05-03T14:46:01.189Z,11.40
2023-05-03T14:48:27.526Z,3.55
2023-05-03T14:50:54.310Z,6.90
2023-05-03T14:53:21.808Z,8.32
2023-05-03T14:55:48.178Z,9.73
2023-05-03T14:58:14.481Z,7.30
2023-05-03T15:00:41.003Z,3.42
2023-05-03T15:03:11.362Z,4.85
2023-05-03T15:05:48.291Z,4.60
2023-05-03T15:08:15.890Z,4.18
2023-05-03T15:10:45.985Z,7.20
2023-05-03T15:13:12.768Z,4.65
2023-05-03T15:15:39.722Z,3.92
2023-05-03T15:18:06.908Z,5.47
2023-05-03T15:20:33.305Z,4.68
2023-05-03T15:22:59.641Z,4.20
2023-05-03T15:25:26.079Z,6.28
2023-05-03T15:27:52.574Z,3.60
2023-05-03T15:30:18.929Z,7.18
2023-05-03T15:32:45.286Z,8.88
2023-05-03T15:35:11.947Z,4.78
2023-05-03T15:37:38.452Z,4.22
2023-05-03T15:40:05.784Z,8.02
2023-05-03T15:42:32.316Z,4.70
2023-05-03T15:44:58.680Z,4.15
2023-05-03T15:47:24.992Z,5.72
2023-05-03T15:49:51.513Z,5.10
2023-05-03T15:52:17.834Z,11.20
2023-05-03T15:54:44.124Z,6.13
2023-05-03T15:57:10.554Z,5.68
2023-05-03T15:59:36.847Z,6.00
2023-05-03T16:02:03.931Z,3.85
2023-05-03T16:04:30.437Z,5.32
2023-05-03T16:06:58.012Z,6.05
2023-05-03T16:09:24.412Z,7.68
2023-05-03T16:11:50.801Z,4.28
2023-05-03T16:14:17.100Z,4.72
2023-05-03T16:16:45.094Z,8.45
2023-05-03T16:19:11.855Z,4.53
2023-05-03T16:21:38.171Z,5.00
2023-05-03T16:24:04.813Z,6.88
2023-05-03T16:26:31.759Z,6.53
2023-05-03T16:28:58.045Z,4.82
2023-05-03T16:31:24.421Z,8.95
2023-05-03T16:33:50.759Z,4.60
2023-05-03T16:36:18.652Z,15.88
2023-05-03T16:38:45.224Z,7.93
2023-05-03T16:41:11.532Z,6.70
2023-05-03T16:43:38.270Z,6.05
2023-05-03T16:46:05.086Z,7.50
2023-05-03T16:48:32.413Z,6.32
2023-05-03T16:50:59.083Z,5.07
2023-05-03T16:53:25.386Z,6.03
2023-05-03T16:55:52.462Z,6.15
2023-05-03T16:58:18.990Z,3.88
2023-05-03T17:00:45.895Z,3.85
2023-05-03T17:03:12.447Z,8.07
2023-05-03T17:05:38.845Z,7.22
2023-05-03T17:08:08.257Z,6.57
2023-05-03T17:10:39.192Z,6.05
2023-05-03T17:13:06.344Z,9.20
2023-05-03T17:15:32.936Z,4.80
2023-05-03T17:18:01.945Z,6.82
2023-05-03T17:20:30.131Z,5.03
2023-05-03T17:22:56.641Z,7.65
2023-05-03T17:25:22.985Z,6.53
2023-05-03T17:27:51.854Z,9.27
2023-05-03T17:30:21.188Z,8.18
2023-05-03T17:32:47.810Z,8.48
2023-05-03T17:35:14.369Z,5.30
2023-05-03T17:37:40.820Z,7.63
2023-05-03T17:40:07.690Z,6.72
2023-05-03T17:42:34.622Z,5.97
2023-05-03T17:45:01.702Z,9.70
2023-05-03T17:47:28.549Z,3.88
2023-05-03T17:49:55.025Z,5.10
2023-05-03T17:52:22.028Z,4.97
2023-05-03T17:54:48.569Z,5.65
2023-05-03T17:57:15.048Z,4.97
2023-05-03T17:59:41.425Z,5.20
2023-05-03T18:02:07.928Z,6.43
2023-05-03T18:04:35.172Z,9.32
2023-05-03T18:07:01.543Z,6.13
2023-05-03T18:09:27.954Z,6.40
2023-05-03T18:11:54.561Z,6.05
2023-05-03T18:14:22.154Z,6.88
2023-05-03T18:16:48.496Z,4.50
2023-05-03T18:19:14.900Z,7.40
2023-05-03T18:21:41.285Z,8.23
2023-05-03T18:24:07.617Z,8.25
2023-05-03T18:26:34.640Z,8.38
2023-05-03T18:29:01.081Z,9.50
2023-05-03T18:31:27.643Z,15.20
2023-05-03T18:33:54.025Z,4.20
2023-05-03T18:36:21.744Z,4.50
2023-05-03T18:38:48.632Z,6.20
2023-05-03T18:41:16.881Z,5.35
2023-05-03T18:43:44.027Z,5.38
2023-05-03T18:46:11.340Z,5.22
2023-05-03T18:48:37.697Z,8.63
2023-05-03T18:51:04.803Z,5.45
2023-05-03T18:53:34.372Z,4.60
2023-05-03T18:56:02.155Z,9.65
2023-05-03T18:58:29.290Z,5.90
2023-05-03T19:00:56.525Z,9.55
2023-05-03T19:03:23.021Z,9.35
2023-05-03T19:05:49.525Z,8.52
2023-05-03T19:08:15.912Z,11.18
2023-05-03T19:10:42.313Z,9.70
2023-05-03T19:13:08.732Z,8.68
2023-05-03T19:15:35.164Z,8.68
2023-05-03T19:18:01.745Z,14.30
2023-05-03T19:20:28.233Z,6.47
2023-05-03T19:22:54.592Z,6.18
2023-05-03T19:25:21.009Z,8.13
2023-05-03T19:27:47.492Z,11.32
2023-05-03T19:30:13.961Z,9.02
2023-05-03T19:32:40.382Z,5.95
2023-05-03T19:35:08.623Z,8.63
2023-05-03T19:37:35.059Z,12.60
2023-05-03T19:40:01.481Z,8.98
2023-05-03T19:42:28.067Z,6.97
2023-05-03T19:44:54.795Z,26.55
2023-05-03T19:47:21.216Z,22.40
2023-05-03T19:49:47.774Z,22.60
2023-05-03T19:52:14.148Z,24.10
2023-05-03T19:54:40.480Z,30.17
2023-05-03T19:57:07.311Z,27.42
2023-05-03T19:59:34.047Z,31.70
2023-05-03T20:02:00.636Z,28.75
2023-05-03T20:04:27.210Z,31.25
2023-05-03T20:06:53.577Z,28.55
2023-05-03T20:09:23.316Z,26.73
2023-05-03T20:11:58.873Z,27.33
2023-05-03T20:14:27.261Z,28.67
2023-05-03T20:16:53.843Z,28.98
2023-05-03T20:19:20.176Z,28.00
2023-05-03T20:21:46.717Z,25.42
2023-05-03T20:24:13.095Z,29.92
2023-05-03T20:26:39.653Z,26.80
2023-05-03T20:29:06.129Z,26.55
2023-05-03T20:31:32.852Z,29.52
2023-05-03T20:33:59.237Z,30.70
2023-05-03T20:36:26.103Z,36.78
2023-05-03T20:38:52.501Z,33.17
2023-05-03T20:41:18.904Z,28.02
2023-05-03T20:43:45.339Z,28.00
2023-05-03T20:46:11.932Z,29.98
2023-05-03T20:48:38.325Z,25.40
2023-05-03T20:51:07.934Z,26.63
2023-05-03T20:53:34.276Z,26.50
2023-05-03T20:56:01.627Z,29.58
2023-05-03T20:58:28.273Z,30.50
2023-05-03T21:00:57.550Z,34.80
2023-05-03T21:03:24.398Z,34.22
2023-05-03T21:05:51.761Z,19.23
2023-05-03T21:08:18.189Z,20.65
2023-05-03T21:10:44.466Z,6.50
2023-05-03T21:13:10.860Z,7.88
2023-05-03T21:15:37.302Z,6.28
2023-05-03T21:18:06.513Z,7.80
2023-05-03T21:20:33.508Z,6.78
2023-05-03T21:22:59.850Z,5.72
2023-05-03T21:25:26.345Z,6.15
2023-05-03T21:27:53.225Z,9.38
2023-05-03T21:30:20.569Z,7.40
2023-05-03T21:32:49.746Z,6.28
2023-05-03T21:35:16.612Z,7.72
2023-05-03T21:37:43.396Z,9.23
2023-05-03T21:40:10.133Z,6.55
2023-05-03T21:42:36.784Z,6.70
2023-05-03T21:45:03.191Z,5.10
2023-05-03T21:47:29.687Z,8.80
2023-05-03T21:49:56.074Z,8.18
2023-05-03T21:52:22.498Z,7.45
2023-05-03T21:54:48.864Z,8.50
2023-05-03T21:57:15.242Z,9.88
2023-05-03T21:59:42.024Z,9.52
2023-05-03T22:02:08.487Z,8.15
2023-05-03T22:04:35.142Z,7.45
2023-05-03T22:07:01.548Z,7.35
2023-05-03T22:09:27.834Z,11.07
2023-05-03T22:11:54.156Z,7.13
2023-05-03T22:14:20.493Z,8.10
2023-05-03T22:16:46.783Z,9.85
2023-05-03T22:19:13.272Z,9.35
2023-05-03T22:21:39.591Z,9.68
2023-05-03T22:24:06.173Z,9.45
2023-05-03T22:26:32.463Z,7.00
2023-05-03T22:28:58.767Z,10.10
2023-05-03T22:31:26.498Z,8.55
2023-05-03T22:33:53.016Z,5.95
2023-05-03T22:36:19.328Z,7.07
2023-05-03T22:38:45.796Z,8.25
2023-05-03T22:41:12.319Z,9.60
2023-05-03T22:43:38.813Z,7.47
2023-05-03T22:46:05.530Z,7.82
2023-05-03T22:48:34.045Z,8.45
2023-05-03T22:51:00.392Z,6.05
2023-05-03T22:53:26.771Z,6.57
2023-05-03T22:55:56.681Z,7.05
2023-05-03T22:58:24.056Z,11.23
2023-05-03T23:00:50.370Z,12.90
2023-05-03T23:03:17.068Z,8.85
2023-05-03T23:05:43.452Z,14.63
2023-05-03T23:08:09.747Z,6.97
2023-05-03T23:10:36.041Z,6.93
2023-05-03T23:13:02.999Z,7.50
2023-05-03T23:15:29.552Z,6.40
2023-05-03T23:17:56.046Z,7.90
2023-05-03T23:20:22.459Z,9.30
2023-05-03T23:22:49.187Z,10.68
2023-05-03T23:25:16.532Z,5.85
2023-05-03T23:27:43.348Z,6.50
2023-05-03T23:30:10.173Z,11.10
2023-05-03T23:32:36.968Z,10.10
2023-05-03T23:35:03.950Z,7.97
2023-05-03T23:37:30.547Z,9.13
2023-05-03T23:39:57.282Z,8.13
2023-05-03T23:42:23.574Z,10.60
2023-05-03T23:44:55.259Z,8.05
2023-05-03T23:47:21.910Z,6.80
2023-05-03T23:49:48.299Z,7.15
2023-05-03T23:52:16.861Z,7.13
2023-05-03T23:54:43.214Z,6.60
2023-05-03T23:57:09.536Z,8.40
2023-05-03T23:59:35.966Z,10.38
